Mc Minnville Municipal Airport
KMMV : now visible

Airfield :











YOU CAN JOIN US ON...

 
LOGIN :

Register | Disclaimer

   EN    FR    IT 

 









Legend :    VFR   Marginal VFR   IFR   Intensive IFR   Very Intensive IFR
Visi :
Ceiling :
>= 8 km
>= 3000ft
5 to 8 km
1000 to 3000 ft
1500m to 5 km
500 to 1000 ft
800 to 1500m
200 to 500 ft
< 800m
< 200 ft
Symbols :   Thunderstorms  Fog  Heavy snow  Heavy precipitations  Wind > 20 kt






- Airport Elevation : 163 ft


KMMV - Mc Minnville Municipal

CURRENT METAR :
  • 300153Z AUTO 24005KT 10SM CLR 21/14 A2979 RMK AO2 SLP085 T02110144

EXPIRED METARs :
  • 300053Z AUTO 22008KT 10SM CLR 23/14 A2980 RMK AO2 SLP091 T02280144
  • 292353Z AUTO 22007KT 10SM CLR 25/16 A2981 RMK AO2 SLP092 T02500156 10278 20217 56014
  • 292253Z AUTO 22009KT 8SM CLR 26/16 A2982 RMK AO2 SLP097 T02610156

TAF N/A
KZSE FIR / North America



MET'MAP, your aeronautical weather chart ! - Copyright ORBIFLY December 2007 - Disclaimer

ORBIFLY MET'MAP TEAM :

Programming & Development : Alexandra Zaïnal
Concept & original design : Baudouin d'Aumeries
Assistance for programming : Marc-Olivier Méhu
Technical & hardware support : Manuel Goepfert

Contact : metmap@orbifly.com




SOURCES & CREDITS :

   NOAA       Earth
Advisory